Terminal Aerodrome Forecast
Issued by NWS Burlington, VT

Home | Current Version | Previous Version | Text Only | Print | Product List | Glossary On
Versions: 1 2 3 4 5 6 7 8 9 10 11 12 13 14 15 16 17 18 19 20 21 22 23
000
FTUS41 KBTV 311700
TAFBTV
TAF
KBTV 311722Z 3118/0118 19010KT 6SM -SHRA VCTS SCT030CB OVC060
     FM312000 20011KT P6SM SCT045
     FM312300 19004KT P6SM SKC
     FM011500 19008KT P6SM SCT050=

USA.gov is the U.S. government's official web portal to all federal, state and local government web resources and services.